• Join FlightAware (Why Join?)
  • Login
  • US Flag 
05:05PM EST


 

Airport Tracker/Info


-or-


 

Live Flight TrackerFlight Track Log ✈ AFL150 ✈ 13-Dec-2013 ✈ UUEE / SVO - MUHA / HAV

Flight Track Log - Related Links

Times and Time Zones

All times are in EST time to prevent confusion due to time zone crossing. See the AFL150 flight status page for this flight to view local times or setup timezone preferences in your user account.

Time Position Orientation Groundspeed Altitude Reporting Facility
EST Latitude Longitude Course Direction KTS MPH feet Rate Location/Type
05:05AM 56.1213 37.0886 320° Northwest  Level FlightAware Approximate
05:06AM 56.2165 36.9438 320° Northwest  Level FlightAware Approximate
05:07AM 56.3116 36.7983 320° Northwest  Level FlightAware Approximate
05:08AM 56.4064 36.6520 320° Northwest  Level FlightAware Approximate
05:09AM 56.5011 36.5050 319° Northwest  Level FlightAware Approximate
05:10AM 56.5957 36.3573 319° Northwest  Level FlightAware Approximate
05:11AM 56.6900 36.2088 319° Northwest  Level FlightAware Approximate
05:12AM 56.7842 36.0596 319° Northwest  Level FlightAware Approximate
05:13AM 56.8781 35.9096 319° Northwest  Level FlightAware Approximate
05:14AM 56.9719 35.7589 319° Northwest  Level FlightAware Approximate
05:15AM 57.0656 35.6074 319° Northwest  Level FlightAware Approximate
05:16AM 57.1590 35.4552 319° Northwest  Level FlightAware Approximate
05:17AM 57.2523 35.3022 318° Northwest  Level FlightAware Approximate
05:18AM 57.3453 35.1483 318° Northwest  Level FlightAware Approximate
05:19AM 57.4382 34.9938 318° Northwest  Level FlightAware Approximate
05:20AM 57.5309 34.8384 318° Northwest  Level FlightAware Approximate
05:21AM 57.6234 34.6823 318° Northwest  Level FlightAware Approximate
05:22AM 57.7157 34.5253 318° Northwest  Level FlightAware Approximate
05:23AM 57.7859 34.3321 315° West  Level Estimated
05:24AM 57.8741 34.1662 315° West  Level FlightAware Approximate
05:25AM 57.9620 33.9996 315° West  Level FlightAware Approximate
05:26AM 58.0497 33.8321 315° West  Level FlightAware Approximate
05:27AM 58.1371 33.6638 315° West  Level FlightAware Approximate
05:28AM 58.2244 33.4946 314° West  Level FlightAware Approximate
05:29AM 58.3114 33.3246 314° West  Level FlightAware Approximate
05:30AM 58.3982 33.1538 314° West  Level FlightAware Approximate
05:31AM 58.4848 32.9822 314° West  Level FlightAware Approximate
05:32AM 58.5711 32.8097 314° West  Level FlightAware Approximate
05:33AM 58.6572 32.6363 314° West  Level FlightAware Approximate
05:34AM 58.7431 32.4621 314° West  Level FlightAware Approximate
05:35AM 58.8287 32.2870 313° West  Level FlightAware Approximate
05:36AM 58.9141 32.1111 313° West  Level FlightAware Approximate
05:37AM 58.9993 31.9343 313° West  Level FlightAware Approximate
05:38AM 59.0842 31.7566 313° West  Level FlightAware Approximate
05:39AM 59.1689 31.5780 313° West  Level FlightAware Approximate
05:40AM 59.2533 31.3986 313° West  Level FlightAware Approximate
05:41AM 59.3375 31.2182 313° West  Level FlightAware Approximate
05:42AM 59.4214 31.0370 312° West  Level FlightAware Approximate
05:43AM 59.5051 30.8549 312° West  Level FlightAware Approximate
05:44AM 59.5885 30.6718 312° West  Level FlightAware Approximate
05:45AM 59.6716 30.4879 312° West  Level FlightAware Approximate
05:46AM 59.7546 30.3030 312° West  Level FlightAware Approximate
05:47AM 59.8372 30.1172 312° West  Level FlightAware Approximate
05:48AM 59.9196 29.9305 311° West  Level FlightAware Approximate
05:49AM 60.0017 29.7429 311° West  Level FlightAware Approximate
05:50AM 60.0835 29.5543 311° West  Level FlightAware Approximate
05:51AM 60.1651 29.3648 311° West  Level FlightAware Approximate
05:52AM 60.2270 29.1469 310° West  Level Estimated
05:53AM 60.3076 28.9549 310° West  Level FlightAware Approximate
05:54AM 60.3879 28.7618 310° West  Level FlightAware Approximate
05:55AM 60.4679 28.5679 310° West  Level FlightAware Approximate
05:56AM 60.5476 28.3729 310° West  Level FlightAware Approximate
05:57AM 60.6271 28.1770 310° West  Level FlightAware Approximate
05:58AM 60.7062 27.9802 309° West  Level FlightAware Approximate
05:59AM 60.7851 27.7824 309° West  Level FlightAware Approximate
06:00AM 60.8637 27.5836 309° West  Level FlightAware Approximate
06:01AM 60.9419 27.3838 309° West  Level FlightAware Approximate
06:02AM 61.0199 27.1830 309° West  Level FlightAware Approximate
06:03AM 61.0976 26.9813 309° West  Level FlightAware Approximate
06:04AM 61.1750 26.7785 308° West  Level FlightAware Approximate
06:05AM 61.2520 26.5748 308° West  Level FlightAware Approximate
06:06AM 61.3288 26.3701 308° West  Level FlightAware Approximate
06:07AM 61.4053 26.1644 308° West  Level FlightAware Approximate
06:08AM 61.4814 25.9576 308° West  Level FlightAware Approximate
06:09AM 61.5572 25.7498 308° West  Level FlightAware Approximate
06:10AM 61.6328 25.5411 307° West  Level FlightAware Approximate
06:11AM 61.7079 25.3313 307° West  Level FlightAware Approximate
06:12AM 61.7828 25.1205 307° West  Level FlightAware Approximate
06:13AM 61.8574 24.9086 307° West  Level FlightAware Approximate
06:14AM 61.9316 24.6958 307° West  Level FlightAware Approximate
06:15AM 62.0055 24.4819 306° West  Level FlightAware Approximate
06:16AM 62.0790 24.2669 306° West  Level FlightAware Approximate
06:17AM 62.1522 24.0509 306° West  Level FlightAware Approximate
06:18AM 62.2251 23.8339 306° West  Level FlightAware Approximate
06:19AM 62.2977 23.6158 306° West  Level FlightAware Approximate
06:20AM 62.3699 23.3967 305° West  Level FlightAware Approximate
06:21AM 62.4417 23.1765 305° West  Level FlightAware Approximate
06:22AM 62.5132 22.9553 305° West  Level FlightAware Approximate
06:23AM 62.5844 22.7330 305° West  Level FlightAware Approximate
06:24AM 62.6552 22.5096 305° West  Level FlightAware Approximate
06:25AM 62.7256 22.2851 304° West  Level FlightAware Approximate
06:26AM 62.7957 22.0596 304° West  Level FlightAware Approximate
06:27AM 62.8654 21.8330 304° West  Level FlightAware Approximate
06:28AM 62.9348 21.6054 304° West  Level FlightAware Approximate
06:29AM 63.0037 21.3767 304° West  Level FlightAware Approximate
06:30AM 63.0724 21.1469 303° West  Level FlightAware Approximate
06:31AM 63.1406 20.9160 303° West  Level FlightAware Approximate
06:32AM 63.2085 20.6840 303° West  Level FlightAware Approximate
06:33AM 63.2759 20.4509 303° West  Level FlightAware Approximate
06:34AM 63.3430 20.2167 303° West  Level FlightAware Approximate
06:35AM 63.4098 19.9815 302° West  Level FlightAware Approximate
06:36AM 63.4761 19.7451 302° West  Level FlightAware Approximate
06:37AM 63.5420 19.5077 302° West  Level FlightAware Approximate
06:38AM 63.6076 19.2692 302° West  Level FlightAware Approximate
06:38AM 58.9042 20.9739 302° West 397 457 34,000  Level FlightAware ADS-B (YKMB / KRB)
06:39AM 58.9351 20.7991 289° West 396 456 34,000  Level FlightAware ADS-B (YKMB / KRB)
06:40AM 58.9619 20.6381 288° West 398 458 34,000  Level FlightAware ADS-B (YKMB / KRB)
06:40AM 58.9831 20.5086 288° West 401 461 34,000  Level FlightAware ADS-B (YKMB / KRB)
06:43AM 59.0738 19.9435 293° West 405 466 34,000  Level FlightAware ADS-B (YKMB / KRB)
06:44AM 59.0955 19.8053 287° West 403 464 34,000  Level FlightAware ADS-B (YKMB / KRB)
06:44AM 59.1167 19.6690 287° West 403 464 34,000  Level FlightAware ADS-B (YKMB / KRB)
06:45AM 59.1373 19.5355 287° West 402 463 34,000  Level FlightAware ADS-B (YKMB / KRB)
06:46AM 59.1563 19.4123 287° West 404 465 34,000  Level FlightAware ADS-B (YKMB / KRB)
06:46AM 59.1804 19.2537 287° West 405 466 34,000  Level FlightAware ADS-B (YKMB / KRB)
06:47AM 59.2023 19.1087 286° West 404 465 34,000  Level FlightAware ADS-B (YKMB / KRB)
06:48AM 59.2201 18.9893 286° West 405 466 34,000  Level FlightAware ADS-B (YKMB / KRB)
06:48AM 59.2436 18.8310 286° West 406 467 34,000  Level FlightAware ADS-B (YKMB / KRB)
06:49AM 59.2642 18.6914 286° West 407 468 34,000  Level FlightAware ADS-B (YKMB / KRB)
06:50AM 59.2822 18.5681 286° West 407 468 34,000  Level FlightAware ADS-B (YKMB / KRB)
06:50AM 59.3054 18.4075 286° West 407 468 34,000  Level FlightAware ADS-B (YKMB / KRB)
06:51AM 59.3258 18.2654 286° West 406 467 34,000  Level FlightAware ADS-B (YKMB / KRB)
06:52AM 59.3459 18.1243 286° West 405 466 34,000  Level FlightAware ADS-B (YKMB / KRB)
06:52AM 59.3659 17.9817 285° West 405 466 34,000  Level FlightAware ADS-B (YKMB / KRB)
06:53AM 59.3856 17.8410 285° West 404 465 34,000  Level FlightAware ADS-B (YKMB / KRB)
06:54AM 59.4054 17.6980 285° West 404 465 34,000  Level FlightAware ADS-B (YKMB / KRB)
06:54AM 59.4252 17.5531 285° West 406 467 34,000  Level FlightAware ADS-B (YKMB / KRB)
06:55AM 59.4446 17.4106 285° West 408 470 34,000  Level FlightAware ADS-B (YKMB / KRB)
06:56AM 59.4641 17.2653 285° West 407 468 34,000  Level FlightAware ADS-B (YKMB / KRB)
06:56AM 59.4827 17.1254 285° West 407 468 34,000  Level FlightAware ADS-B (YKMB / KRB)
06:57AM 59.5020 16.9794 285° West 410 472 34,000  Level FlightAware ADS-B (YKMB / KRB)
06:58AM 59.5207 16.8366 285° West 412 474 34,000  Level FlightAware ADS-B (YKMB / KRB)
06:58AM 59.5400 16.6874 284° West 413 475 34,000  Level FlightAware ADS-B (YKMB / KRB)
06:59AM 59.5583 16.5447 284° West 414 476 34,000  Level FlightAware ADS-B (YKMB / KRB)
07:00AM 59.5769 16.3992 284° West 414 476 34,000  Level FlightAware ADS-B (YKMB / KRB)
07:00AM 59.5955 16.2509 284° West 415 478 34,000  Level FlightAware ADS-B (YKMB / KRB)
07:01AM 59.6135 16.1062 284° West 416 479 34,000  Level FlightAware ADS-B (YKMB / KRB)
07:02AM 59.6317 15.9581 284° West 416 479 34,000  Level FlightAware ADS-B (YKMB / KRB)
07:02AM 59.6496 15.8114 284° West 415 478 34,000  Level FlightAware ADS-B (YKMB / KRB)
07:03AM 59.6673 15.6650 284° West 414 476 34,000  Level FlightAware ADS-B (YKMB / KRB)
07:04AM 59.6822 15.5410 283° West 416 479 34,000  Level FlightAware ADS-B (YKMB / KRB)
07:39AM 60.6447 7.6524 281° West 410 472 36,000  Climbing FlightAware ADS-B (EGBP)
07:40AM 60.6599 7.5060 282° West 411 473 36,000  Level FlightAware ADS-B (EGBP)
07:40AM 60.6749 7.3602 282° West 413 475 36,000  Level FlightAware ADS-B (EGBP)
07:41AM 60.6914 7.1986 282° West 413 475 36,000  Level FlightAware ADS-B (EGBP)
07:42AM 60.7068 7.0457 282° West 414 476 36,000  Level FlightAware ADS-B (EGBP)
07:42AM 60.7211 6.9019 282° West 412 474 36,000  Level FlightAware ADS-B (EGBP)
07:43AM 60.7367 6.7417 281° West 409 471 36,000  Level FlightAware ADS-B (EGBP)
07:44AM 60.7512 6.5912 281° West 408 470 36,000  Level FlightAware ADS-B (EGBP)
07:44AM 60.7651 6.4458 281° West 410 472 36,000  Level FlightAware ADS-B (EGBP)
07:45AM 60.7801 6.2861 281° West 411 473 36,000  Level FlightAware ADS-B (EGBP)
07:46AM 60.7938 6.1386 281° West 408 470 36,000  Level FlightAware ADS-B (EGBP)
07:46AM 60.8059 6.0079 281° West 403 464 36,000  Level FlightAware ADS-B (EGBP)
07:47AM 60.8214 5.8372 281° West 399 459 36,000  Level FlightAware ADS-B (EGBP)
07:48AM 60.8349 5.6870 281° West 398 458 36,000  Level FlightAware ADS-B (EGBP)
07:48AM 60.8472 5.5468 280° West 397 457 36,000  Level FlightAware ADS-B (EGBP)
07:51AM 60.8915 5.0163 280° West  Level Estimated
07:52AM 60.9119 4.7632 279° West  Level Estimated
07:53AM 60.9317 4.5098 279° West  Level Estimated
07:54AM 60.9511 4.2560 279° West  Level Estimated
07:55AM 60.9701 4.0020 279° West  Level Estimated
07:56AM 60.9885 3.7476 279° West  Level Estimated
07:57AM 61.0065 3.4930 278° West  Level Estimated
07:58AM 61.0239 3.2381 278° West  Level Estimated
07:59AM 61.0409 2.9829 278° West  Level Estimated
08:00AM 61.0574 2.7274 278° West  Level Estimated
08:01AM 61.0735 2.4717 277° West  Level Estimated
08:02AM 61.0890 2.2157 277° West  Level Estimated
08:03AM 61.1041 1.9595 277° West  Level Estimated
08:04AM 61.1187 1.7030 277° West  Level Estimated
08:05AM 61.1328 1.4463 277° West  Level Estimated
08:06AM 61.1464 1.1893 276° West  Level Estimated
08:07AM 61.1595 0.9322 276° West  Level Estimated
08:08AM 61.1721 0.6748 276° West  Level Estimated
08:09AM 61.1843 0.4173 276° West  Level Estimated
08:10AM 61.1959 0.1595 275° West  Level Estimated
08:11AM 61.2071 -0.0984 275° West  Level Estimated
08:12AM 61.2178 -0.3566 275° West  Level Estimated
08:13AM 61.2280 -0.6148 275° West  Level Estimated
08:14AM 61.2377 -0.8733 275° West  Level Estimated
08:15AM 61.2469 -1.1319 274° West  Level Estimated
08:16AM 61.2556 -1.3907 274° West  Level Estimated
08:17AM 61.2638 -1.6496 274° West  Level Estimated
08:18AM 61.2715 -1.9086 274° West  Level Estimated
08:19AM 61.2787 -2.1677 273° West  Level Estimated
08:20AM 61.2855 -2.4270 273° West  Level Estimated
08:21AM 61.2917 -2.6864 273° West  Level Estimated
08:22AM 61.2975 -2.9459 273° West  Level Estimated
08:23AM 61.3027 -3.2055 273° West  Level Estimated
08:24AM 61.3074 -3.4651 272° West  Level Estimated
08:25AM 61.3117 -3.7248 272° West  Level Estimated
08:26AM 61.3155 -3.9846 272° West  Level Estimated
08:27AM 61.3187 -4.2445 272° West  Level Estimated
08:28AM 61.3215 -4.5044 271° West  Level Estimated
08:29AM 61.3238 -4.7643 271° West  Level Estimated
08:30AM 61.3256 -5.0243 271° West  Level Estimated
08:31AM 61.3268 -5.2843 271° West  Level Estimated
08:32AM 61.3276 -5.5443 270° West  Level Estimated
08:33AM 61.3279 -5.8043 270° West  Level Estimated
08:34AM 61.3277 -6.0644 270° West  Level Estimated
08:35AM 61.3270 -6.3244 270° West  Level Estimated
08:36AM 61.3258 -6.5844 270° West  Level Estimated
08:37AM 61.3241 -6.8443 269° West  Level Estimated
08:38AM 61.3219 -7.1043 269° West  Level Estimated
08:39AM 61.3192 -7.3642 269° West  Level Estimated
08:40AM 61.3160 -7.6241 269° West  Level Estimated
08:41AM 61.3123 -7.8839 268° West  Level Estimated
08:42AM 61.3081 -8.1436 268° West  Level Estimated
08:43AM 61.3035 -8.4033 268° West  Level Estimated
08:44AM 61.2983 -8.6628 268° West  Level Estimated
08:45AM 61.2926 -8.9223 268° West  Level Estimated
08:46AM 61.2865 -9.1817 267° West  Level Estimated
08:47AM 61.2798 -9.4410 267° West  Level Estimated
08:48AM 61.2727 -9.7002 267° West  Level Estimated
08:49AM 61.2650 -9.9592 267° West  Level Estimated
08:50AM 61.2569 -10.2182 266° West  Level Estimated
08:51AM 61.2482 -10.4769 266° West  Level Estimated
08:52AM 61.2391 -10.7356 266° West  Level Estimated
08:53AM 61.2295 -10.9941 266° West  Level Estimated
08:54AM 61.2194 -11.2524 265° West  Level Estimated
08:55AM 61.2088 -11.5105 265° West  Level Estimated
08:56AM 61.1977 -11.7685 265° West  Level Estimated
08:57AM 61.1861 -12.0263 265° West  Level Estimated
08:58AM 61.1740 -12.2839 265° West  Level Estimated
08:59AM 61.1615 -12.5413 264° West  Level Estimated
09:00AM 61.1484 -12.7984 264° West  Level Estimated
09:01AM 61.1349 -13.0554 264° West  Level Estimated
09:02AM 61.1209 -13.3122 264° West  Level Estimated
09:03AM 61.1063 -13.5687 263° West  Level Estimated
09:04AM 61.0914 -13.8249 263° West  Level Estimated
09:05AM 61.0759 -14.0809 263° West  Level Estimated
09:06AM 61.0599 -14.3367 263° West  Level Estimated
09:07AM 61.0435 -14.5922 263° West  Level Estimated
09:08AM 61.0266 -14.8475 262° West  Level Estimated
09:09AM 61.0091 -15.1024 262° West  Level Estimated
09:10AM 60.9912 -15.3571 262° West  Level Estimated
09:11AM 60.9729 -15.6115 262° West  Level Estimated
09:12AM 60.9540 -15.8656 261° West  Level Estimated
09:13AM 60.9347 -16.1194 261° West  Level Estimated
09:14AM 60.9149 -16.3729 261° West  Level Estimated
09:15AM 60.8946 -16.6260 261° West  Level Estimated
09:16AM 60.8739 -16.8789 261° West  Level Estimated
09:17AM 60.8526 -17.1313 260° West  Level Estimated
09:18AM 60.8310 -17.3835 260° West  Level Estimated
09:19AM 60.8088 -17.6353 260° West  Level Estimated
09:20AM 60.7861 -17.8868 260° West  Level Estimated
09:21AM 60.7630 -18.1379 259° West  Level Estimated
09:22AM 60.7394 -18.3886 259° West  Level Estimated
09:23AM 60.7154 -18.6390 259° West  Level Estimated
09:24AM 60.6909 -18.8890 259° West  Level Estimated
09:25AM 60.6659 -19.1386 259° West  Level Estimated
09:26AM 60.6405 -19.3878 258° West  Level Estimated
09:27AM 60.6146 -19.6366 258° West  Level Estimated
09:28AM 60.5882 -19.8850 258° West  Level Estimated
09:29AM 60.5614 -20.1331 258° West  Level Estimated
09:30AM 60.5341 -20.3806 257° West  Level Estimated
09:31AM 60.5064 -20.6278 257° West  Level Estimated
09:32AM 60.4782 -20.8746 257° West  Level Estimated
09:33AM 60.4495 -21.1209 257° West  Level Estimated
09:34AM 60.4204 -21.3668 257° West  Level Estimated
09:35AM 60.3909 -21.6122 256° West  Level Estimated
09:36AM 60.3609 -21.8572 256° West  Level Estimated
09:37AM 60.3304 -22.1017 256° West  Level Estimated
09:38AM 60.2995 -22.3458 256° West  Level Estimated
09:39AM 60.2681 -22.5894 256° West  Level Estimated
09:40AM 60.2363 -22.8325 255° West  Level Estimated
09:41AM 60.2041 -23.0752 255° West  Level Estimated
09:42AM 60.1714 -23.3174 255° West  Level Estimated
09:43AM 60.1383 -23.5591 255° West  Level Estimated
09:44AM 60.1047 -23.8003 254° West  Level Estimated
09:45AM 60.0707 -24.0410 254° West  Level Estimated
09:46AM 60.0363 -24.2812 254° West  Level Estimated
09:47AM 60.0014 -24.5209 254° West  Level Estimated
09:48AM 59.9661 -24.7601 254° West  Level Estimated
09:49AM 59.9304 -24.9988 253° West  Level Estimated
09:50AM 59.8942 -25.2370 253° West  Level Estimated
09:51AM 59.8576 -25.4746 253° West  Level Estimated
09:52AM 59.8206 -25.7117 253° West  Level Estimated
09:53AM 59.7831 -25.9483 253° West  Level Estimated
09:54AM 59.7453 -26.1844 252° West  Level Estimated
09:55AM 59.7070 -26.4199 252° West  Level Estimated
09:56AM 59.6682 -26.6549 252° West  Level Estimated
09:57AM 59.6291 -26.8894 252° West  Level Estimated
09:58AM 59.5896 -27.1232 252° West  Level Estimated
09:59AM 59.5496 -27.3566 251° West  Level Estimated
10:00AM 59.5092 -27.5894 251° West  Level Estimated
10:01AM 59.4684 -27.8216 251° West  Level Estimated
10:02AM 59.4272 -28.0532 251° West  Level Estimated
10:03AM 59.3856 -28.2843 251° West  Level Estimated
10:04AM 59.3436 -28.5149 250° West  Level Estimated
10:05AM 59.3011 -28.7448 250° West  Level Estimated
10:06AM 59.2583 -28.9742 250° West  Level Estimated
10:07AM 59.2151 -29.2030 250° West  Level Estimated
10:08AM 59.1714 -29.4312 250° West  Level Estimated
10:09AM 59.1274 -29.6589 249° West  Level Estimated
10:10AM 59.0830 -29.8859 249° West  Level Estimated
10:11AM 59.0381 -30.1124 249° West  Level Estimated
10:12AM 58.9929 -30.3382 249° West  Level Estimated
10:13AM 58.9473 -30.5635 249° West  Level Estimated
10:14AM 58.9013 -30.7882 248° West  Level Estimated
10:15AM 58.8549 -31.0122 248° West  Level Estimated
10:16AM 58.8081 -31.2357 248° West  Level Estimated
10:17AM 58.7610 -31.4586 248° West  Level Estimated
10:18AM 58.7134 -31.6808 248° West  Level Estimated
10:19AM 58.6655 -31.9025 248° West  Level Estimated
10:20AM 58.6172 -32.1235 247° West  Level Estimated
10:21AM 58.5685 -32.3439 247° West  Level Estimated
10:22AM 58.5194 -32.5638 247° West  Level Estimated
10:23AM 58.4700 -32.7830 247° West  Level Estimated
10:24AM 58.4202 -33.0015 247° West  Level Estimated
10:25AM 58.3700 -33.2195 246° West  Level Estimated
10:26AM 58.3195 -33.4368 246° West  Level Estimated
10:27AM 58.2685 -33.6535 246° West  Level Estimated
10:28AM 58.2173 -33.8696 246° West  Level Estimated
10:29AM 58.1656 -34.0851 246° West  Level Estimated
10:30AM 58.1136 -34.2999 245° Southwest  Level Estimated
10:31AM 58.0612 -34.5141 245° Southwest  Level Estimated
10:32AM 58.0085 -34.7277 245° Southwest  Level Estimated
10:33AM 57.9554 -34.9407 245° Southwest  Level Estimated
10:34AM 57.9020 -35.1530 245° Southwest  Level Estimated
10:35AM 57.8482 -35.3647 245° Southwest  Level Estimated
10:36AM 57.7940 -35.5757 244° Southwest  Level Estimated
10:37AM 57.7395 -35.7862 244° Southwest  Level Estimated
10:38AM 57.6847 -35.9959 244° Southwest  Level Estimated
10:39AM 57.6295 -36.2051 244° Southwest  Level Estimated
10:40AM 57.5740 -36.4136 244° Southwest  Level Estimated
10:41AM 57.5181 -36.6215 243° Southwest  Level Estimated
10:42AM 57.4619 -36.8287 243° Southwest  Level Estimated
10:43AM 57.4053 -37.0353 243° Southwest  Level Estimated
10:44AM 57.3485 -37.2413 243° Southwest  Level Estimated
10:45AM 57.2912 -37.4466 243° Southwest  Level Estimated
10:46AM 57.2337 -37.6513 243° Southwest  Level Estimated
10:47AM 57.1758 -37.8553 242° Southwest  Level Estimated
10:48AM 57.1176 -38.0587 242° Southwest  Level Estimated
10:49AM 57.0590 -38.2615 242° Southwest  Level Estimated
10:50AM 57.0001 -38.4636 242° Southwest  Level Estimated
10:51AM 56.9409 -38.6651 242° Southwest  Level Estimated
10:52AM 56.8814 -38.8659 242° Southwest  Level Estimated
10:53AM 56.8216 -39.0661 241° Southwest  Level Estimated
10:54AM 56.7614 -39.2657 241° Southwest  Level Estimated
10:55AM 56.7009 -39.4646 241° Southwest  Level Estimated
10:56AM 56.6401 -39.6629 241° Southwest  Level Estimated
10:57AM 56.5790 -39.8605 241° Southwest  Level Estimated
10:58AM 56.5176 -40.0575 241° Southwest  Level Estimated
10:59AM 56.4559 -40.2539 240° Southwest  Level Estimated
11:00AM 56.3938 -40.4496 240° Southwest  Level Estimated
11:01AM 56.3315 -40.6447 240° Southwest  Level Estimated
11:02AM 56.2688 -40.8391 240° Southwest  Level Estimated
11:03AM 56.2059 -41.0329 240° Southwest  Level Estimated
11:04AM 56.1426 -41.2261 240° Southwest  Level Estimated
11:05AM 56.0790 -41.4186 239° Southwest  Level Estimated
11:06AM 56.0152 -41.6105 239° Southwest  Level Estimated
11:07AM 55.9510 -41.8018 239° Southwest  Level Estimated
11:08AM 55.8866 -41.9924 239° Southwest  Level Estimated
11:09AM 55.8218 -42.1824 239° Southwest  Level Estimated
11:10AM 55.7568 -42.3717 239° Southwest  Level Estimated
11:11AM 55.6914 -42.5605 239° Southwest  Level Estimated
11:12AM 55.6258 -42.7486 238° Southwest  Level Estimated
11:13AM 55.5599 -42.9361 238° Southwest  Level Estimated
11:14AM 55.4937 -43.1229 238° Southwest  Level Estimated
11:15AM 55.4273 -43.3091 238° Southwest  Level Estimated
11:16AM 55.3605 -43.4947 238° Southwest  Level Estimated
11:17AM 55.2935 -43.6796 238° Southwest  Level Estimated
11:18AM 55.2262 -43.8640 237° Southwest  Level Estimated
11:19AM 55.1586 -44.0477 237° Southwest  Level Estimated
11:20AM 55.0907 -44.2308 237° Southwest  Level Estimated
11:21AM 55.0226 -44.4132 237° Southwest  Level Estimated
11:22AM 54.9542 -44.5951 237° Southwest  Level Estimated
11:23AM 54.8856 -44.7760 237° Southwest  Level Estimated
11:24AM 54.8168 -44.9563 237° Southwest  Level Estimated
11:25AM 54.7477 -45.1360 236° Southwest  Level Estimated
11:26AM 54.6783 -45.3150 236° Southwest  Level Estimated
11:27AM 54.6087 -45.4935 236° Southwest  Level Estimated
11:28AM 54.5388 -45.6714 236° Southwest  Level Estimated
11:29AM 54.4687 -45.8486 236° Southwest  Level Estimated
11:30AM 54.3982 -46.0252 236° Southwest  Level Estimated
11:31AM 54.3276 -46.2013 236° Southwest  Level Estimated
11:32AM 54.2567 -46.3767 235° Southwest  Level Estimated
11:33AM 54.1855 -46.5515 235° Southwest  Level Estimated
11:35AM 62.2833 -59.2333 234° Southwest 300 345 36,000  Level Montreal Center
11:36AM 53.9705 -47.0723 235° Southwest  Level Estimated
11:36AM 62.2333 -59.4000 237° Southwest 420 483 36,000  Level Gander Center
11:37AM 53.8983 -47.2448 235° Southwest  Level Estimated
11:37AM 62.1500 -59.6167 231° Southwest 460 529 36,000  Level Gander Center
11:38AM 53.8259 -47.4166 235° Southwest  Level Estimated
11:38AM 62.0667 -59.8667 235° Southwest 470 541 36,000  Level Gander Center
11:39AM 53.7532 -47.5878 234° Southwest  Level Estimated
11:39AM 61.9833 -60.0500 226° Southwest 470 541 36,000  Level Gander Center
11:40AM 53.6803 -47.7585 234° Southwest  Level Estimated
11:40AM 61.9000 -60.2667 231° Southwest 470 541 36,000  Level Gander Center
11:41AM 61.8333 -60.4667 235° Southwest 470 541 36,000  Level Gander Center
11:42AM 61.7500 -60.6833 231° Southwest 470 541 36,000  Level Gander Center
11:43AM 61.6667 -60.9000 231° Southwest 480 552 36,000  Level Gander Center
11:44AM 61.5667 -61.1000 224° Southwest 470 541 36,000  Level Gander Center
11:45AM 61.4833 -61.3500 235° Southwest 480 552 36,000  Level Gander Center
11:46AM 61.4000 -61.5667 231° Southwest 480 552 36,000  Level Gander Center
11:47AM 61.3167 -61.7667 229° Southwest 480 552 36,000  Level Gander Center
11:48AM 61.2333 -61.9667 229° Southwest 470 541 36,000  Level Gander Center
11:49AM 61.1500 -62.1833 231° Southwest 470 541 36,000  Level Gander Center
11:50AM 61.0167 -62.3833 216° Southwest 470 541 36,000  Level Montreal Center
11:51AM 60.9333 -62.5667 227° Southwest 460 529 36,000  Level Montreal Center
11:52AM 60.8500 -62.7833 232° Southwest 460 529 36,000  Level Montreal Center
11:53AM 60.7833 -62.9833 236° Southwest 460 529 36,000  Level Gander Center
11:54AM 60.7000 -63.1833 230° Southwest 470 541 36,000  Level Gander Center
11:55AM 60.6167 -63.3833 230° Southwest 470 541 36,000  Level Gander Center
11:56AM 60.5333 -63.5833 230° Southwest 470 541 36,000  Level Gander Center
11:57AM 60.4500 -63.7833 230° Southwest 470 541 36,000  Level Gander Center
11:58AM 60.3500 -63.9667 222° Southwest 470 541 36,000  Level Gander Center
11:59AM 60.2667 -64.1667 230° Southwest 470 541 36,000  Level Gander Center
12:00PM 60.1833 -64.3667 230° Southwest 460 529 36,000  Level Gander Center
12:01PM 60.1000 -64.5500 228° Southwest 460 529 36,000  Level Gander Center
12:02PM 60.0000 -64.7167 220° Southwest 460 529 36,000  Level Gander Center
12:03PM 59.9167 -64.9000 228° Southwest 460 529 36,000  Level Gander Center
12:04PM 59.8333 -65.0833 228° Southwest 470 541 36,000  Level Gander Center
12:05PM 59.7500 -65.2833 230° Southwest 460 529 36,000  Level Gander Center
12:06PM 59.6500 -65.4667 223° Southwest 460 529 36,000  Level Gander Center
12:07PM 59.5667 -65.6500 228° Southwest 460 529 36,000  Level Gander Center
12:08PM 59.4833 -65.8000 222° Southwest 460 529 36,000  Level Gander Center
12:09PM 59.3833 -65.9833 223° Southwest 460 529 36,000  Level Gander Center
12:10PM 59.3000 -66.1833 231° Southwest 460 529 36,000  Level Gander Center
12:11PM 59.2000 -66.3500 221° Southwest 460 529 36,000  Level Gander Center
12:12PM 59.1167 -66.5333 229° Southwest 460 529 36,000  Level Gander Center
12:13PM 59.0333 -66.7167 229° Southwest 460 529 36,000  Level Gander Center
12:14PM 58.9333 -66.8667 218° Southwest 460 529 36,000  Level Gander Center
12:15PM 58.8500 -67.0500 229° Southwest 460 529 36,000  Level Gander Center
12:16PM 58.7500 -67.2333 224° Southwest 460 529 36,000  Level Gander Center
12:17PM 58.6667 -67.4000 226° Southwest 460 529 36,000  Level Gander Center
12:18PM 58.5667 -67.5833 224° Southwest 460 529 36,000  Level Gander Center
12:19PM 58.4833 -67.7333 223° Southwest 460 529 36,000  Level Gander Center
12:20PM 58.3833 -67.9000 221° Southwest 460 529 36,000  Level Gander Center
12:21PM 58.3000 -68.0833 229° Southwest 470 541 36,000  Level Gander Center
12:22PM 58.2000 -68.2500 221° Southwest 470 541 36,000  Level Gander Center
12:23PM 58.1167 -68.4500 232° Southwest 490 564 36,000  Level Gander Center
12:24PM 58.0167 -68.5167 199° South 480 552 36,000  Level Montreal Center
12:25PM 57.9167 -68.6333 212° Southwest 460 529 36,000  Level Montreal Center
12:26PM 57.8000 -68.8167 220° Southwest 450 518 36,000  Level Montreal Center
12:27PM 57.7000 -68.9333 212° Southwest 450 518 36,000  Level Montreal Center
12:28PM 57.6000 -69.0833 219° Southwest 450 518 36,000  Level Montreal Center
12:29PM 57.5000 -69.2167 216° Southwest 450 518 36,000  Level Montreal Center
12:30PM 57.4000 -69.3333 212° Southwest 450 518 36,000  Level Montreal Center
12:31PM 57.3000 -69.4833 219° Southwest 450 518 36,000  Level Montreal Center
12:32PM 57.1833 -69.6167 212° Southwest 450 518 36,000  Level Montreal Center
12:33PM 57.1000 -69.7667 224° Southwest 450 518 36,000  Level Montreal Center
12:34PM 56.9833 -69.8667 205° Southwest 450 518 36,000  Level Montreal Center
12:35PM 56.8833 -70.0167 219° Southwest 450 518 36,000  Level Montreal Center
12:36PM 56.7833 -70.1500 216° Southwest 450 518 36,000  Level Montreal Center
12:37PM 56.6833 -70.2833 216° Southwest 450 518 36,000  Level Montreal Center
12:38PM 56.5833 -70.4333 220° Southwest 450 518 36,000  Level Montreal Center
12:39PM 56.4667 -70.5667 212° Southwest 450 518 36,000  Level Montreal Center
12:40PM 56.3667 -70.6667 209° Southwest 450 518 36,000  Level Montreal Center
12:41PM 56.2667 -70.8000 217° Southwest 450 518 36,000  Level Montreal Center
12:42PM 56.1500 -70.9500 216° Southwest 450 518 36,000  Level Montreal Center
12:43PM 56.0500 -71.0500 209° Southwest 450 518 36,000  Level Montreal Center
12:44PM 55.9333 -71.1833 213° Southwest 450 518 36,000  Level Montreal Center
12:45PM 55.8500 -71.3167 222° Southwest 450 518 36,000  Level Montreal Center
12:46PM 55.7333 -71.4167 206° Southwest 450 518 36,000  Level Montreal Center
12:47PM 55.6333 -71.5500 217° Southwest 450 518 36,000  Level Montreal Center
12:48PM 55.5167 -71.6833 213° Southwest 450 518 36,000  Level Montreal Center
12:49PM 55.4167 -71.8000 214° Southwest 450 518 36,000  Level Montreal Center
12:50PM 55.3167 -71.9167 214° Southwest 450 518 36,000  Level Montreal Center
12:51PM 55.2167 -72.0333 214° Southwest 450 518 36,000  Level Montreal Center
12:52PM 55.1167 -72.1667 217° Southwest 450 518 36,000  Level Montreal Center
12:53PM 55.0000 -72.3000 213° Southwest 450 518 36,000  Level Montreal Center
12:54PM 54.8833 -72.4167 210° Southwest 450 518 36,000  Level Montreal Center
12:55PM 54.7833 -72.5167 210° Southwest 450 518 36,000  Level Montreal Center
12:56PM 54.6667 -72.6500 213° Southwest 450 518 36,000  Level Montreal Center
12:57PM 54.5833 -72.7667 219° Southwest 450 518 36,000  Level Montreal Center
12:58PM 54.4667 -72.9000 214° Southwest 450 518 36,000  Level Montreal Center
12:59PM 54.3667 -72.9833 206° Southwest 450 518 36,000  Level Montreal Center
01:00PM 54.2500 -73.1167 214° Southwest 450 518 36,000  Level Montreal Center
01:01PM 54.1500 -73.2333 214° Southwest 450 518 36,000  Level Montreal Center
01:02PM 54.0333 -73.3500 210° Southwest 450 518 36,000  Level Montreal Center
01:03PM 53.9167 -73.4500 207° Southwest 450 518 36,000  Level Montreal Center
01:04PM 53.8167 -73.5667 215° Southwest 460 529 36,000  Level Montreal Center
01:05PM 53.7000 -73.6833 211° Southwest 450 518 36,000  Level Montreal Center
01:06PM 53.6000 -73.7833 211° Southwest 450 518 36,000  Level Montreal Center
01:07PM 53.4833 -73.8667 203° Southwest 450 518 36,000  Level Montreal Center
01:08PM 53.3667 -73.9833 211° Southwest 450 518 36,000  Level Montreal Center
01:09PM 53.2500 -74.0833 207° Southwest 450 518 36,000  Level Montreal Center
01:10PM 53.1333 -74.1667 203° Southwest 450 518 36,000  Level Montreal Center
01:11PM 53.0167 -74.2500 203° Southwest 450 518 36,000  Level Montreal Center
01:12PM 52.9167 -74.3667 215° Southwest 450 518 36,000  Level Montreal Center
01:13PM 52.8167 -74.4667 211° Southwest 450 518 36,000  Level Montreal Center
01:14PM 52.7000 -74.5500 203° Southwest 450 518 36,000  Level Montreal Center
01:15PM 52.5833 -74.6333 203° Southwest 450 518 36,000  Level Montreal Center
01:16PM 52.4500 -74.7167 201° Southwest 450 518 36,000  Level Montreal Center
01:17PM 52.3333 -74.8000 204° Southwest 450 518 36,000  Level Montreal Center
01:18PM 52.2333 -74.9000 211° Southwest 440 506 36,000  Level Montreal Center
01:19PM 52.1167 -75.0000 208° Southwest 460 529 36,000  Level Montreal Center
01:20PM 52.0000 -75.0833 204° Southwest 470 541 36,000  Level Montreal Center
01:21PM 51.8833 -75.1667 204° Southwest 450 518 36,000  Level Montreal Center
01:22PM 51.7667 -75.2500 204° Southwest 450 518 36,000  Level Montreal Center
01:23PM 51.6500 -75.3333 204° Southwest 450 518 36,000  Level Montreal Center
01:24PM 51.5333 -75.4500 212° Southwest 450 518 36,000  Level Montreal Center
01:25PM 51.4333 -75.5333 207° Southwest 450 518 36,000  Level Montreal Center
01:26PM 51.3000 -75.6167 201° Southwest 450 518 36,000  Level Montreal Center
01:27PM 51.2000 -75.7000 208° Southwest 450 518 36,000  Level Montreal Center
01:28PM 51.0833 -75.7833 204° Southwest 450 518 36,000  Level Montreal Center
01:29PM 50.9667 -75.8833 208° Southwest 450 518 36,000  Level Montreal Center
01:30PM 50.8667 -75.9667 208° Southwest 450 518 36,000  Level Montreal Center
01:31PM 50.7333 -76.0500 202° Southwest 460 529 36,000  Level Montreal Center
01:32PM 50.6333 -76.1167 203° Southwest 450 518 36,000  Level Montreal Center
01:33PM 50.5167 -76.2000 204° Southwest 450 518 36,000  Level Montreal Center
01:34PM 50.4000 -76.2833 204° Southwest 450 518 36,000  Level Montreal Center
01:35PM 50.2833 -76.3833 209° Southwest 450 518 36,000  Level Montreal Center
01:36PM 50.1667 -76.4667 205° Southwest 450 518 36,000  Level Montreal Center
01:37PM 50.0500 -76.5500 205° Southwest 450 518 36,000  Level Montreal Center
01:38PM 49.9333 -76.6167 200° South 450 518 36,000  Level Montreal Center
01:39PM 49.8167 -76.7000 205° Southwest 450 518 36,000  Level Montreal Center
01:40PM 49.7000 -76.7667 200° South 450 518 36,000  Level Montreal Center
01:41PM 49.6000 -76.8500 208° Southwest 450 518 36,000  Level Montreal Center
01:42PM 49.4833 -76.9500 209° Southwest 440 506 36,000  Level Montreal Center
01:43PM 49.3667 -77.0167 200° South 470 541 36,000  Level Montreal Center
01:44PM 49.2500 -77.1000 205° Southwest 430 495 36,000  Level Montreal Center
01:45PM 49.1500 -77.1667 204° Southwest 440 506 36,000  Level Montreal Center
01:46PM 49.0333 -77.2500 205° Southwest 440 506 36,000  Level Montreal Center
01:47PM 48.9000 -77.3167 198° South 440 506 36,000  Level Montreal Center
01:48PM 48.8000 -77.4000 209° Southwest 440 506 36,000  Level Montreal Center
01:49PM 48.7000 -77.4667 204° Southwest 440 506 36,000  Level Montreal Center
01:50PM 48.5833 -77.5333 201° Southwest 440 506 36,000  Level Montreal Center
01:51PM 48.4667 -77.6167 205° Southwest 430 495 36,000  Level Montreal Center
01:52PM 48.3667 -77.6833 204° Southwest 430 495 36,000  Level Montreal Center
01:53PM 48.2500 -77.7500 201° Southwest 430 495 36,000  Level Montreal Center
01:54PM 48.1500 -77.8333 209° Southwest 430 495 36,000  Level Montreal Center
01:55PM 48.0333 -77.9000 201° Southwest 440 506 36,000  Level Montreal Center
01:56PM 47.9000 -77.9667 199° South 440 506 36,000  Level Montreal Center
01:57PM 47.7833 -78.0333 201° Southwest 440 506 36,000  Level Montreal Center
01:58PM 47.6833 -78.1167 209° Southwest 440 506 36,000  Level Montreal Center
01:59PM 47.5667 -78.1833 201° Southwest 440 506 36,000  Level Montreal Center
02:00PM 47.4500 -78.2500 201° Southwest 440 506 36,000  Level Montreal Center
02:01PM 47.3500 -78.3000 199° South 440 506 36,000  Level Montreal Center
02:02PM 47.2333 -78.3667 201° Southwest 440 506 36,000  Level Montreal Center
02:03PM 47.1000 -78.4333 199° South 440 506 36,000  Level Montreal Center
02:04PM 46.9833 -78.5000 201° Southwest 430 495 36,000  Level Montreal Center
02:05PM 46.8833 -78.5667 205° Southwest 430 495 36,000  Level Montreal Center
02:06PM 46.7667 -78.6167 196° South 430 495 36,000  Level Montreal Center
02:07PM 46.6667 -78.6833 205° Southwest 430 495 36,000  Level Montreal Center
02:08PM 46.5500 -78.7500 201° Southwest 430 495 36,000  Level Montreal Center
02:09PM 46.4333 -78.8167 201° Southwest 430 495 36,000  Level Montreal Center
02:10PM 46.3333 -78.8833 205° Southwest 430 495 36,000  Level Montreal Center
02:11PM 46.2167 -78.9167 191° South 430 495 36,000  Level Montreal Center
02:12PM 46.1000 -78.9833 202° Southwest 430 495 36,000  Level Montreal Center
02:13PM 46.0000 -79.0500 205° Southwest 420 483 36,000  Level Montreal Center
02:14PM 45.8833 -79.1167 202° Southwest 420 483 36,000  Level Montreal Center
02:15PM 45.7667 -79.1667 197° South 420 483 36,000  Level Montreal Center
02:21PM 45.1816 -79.4827 197° South 414 476 36,000  Level FlightAware ADS-B
02:22PM 45.1147 -79.5178 200° South 414 476 36,000  Level FlightAware ADS-B
02:23PM 44.9651 -79.5956 200° South 403 464 36,000  Level FlightAware ADS-B
02:24PM 44.8553 -79.6527 200° South 403 464 36,000  Level FlightAware ADS-B
02:26PM 44.6358 -79.7657 200° South 409 471 36,000  Level FlightAware ADS-B
02:27PM 44.5785 -79.7991 203° Southwest 392 451 36,000  Level FlightAware ADS-B
02:27PM 44.5245 -79.8434 210° Southwest 392 451 36,000  Level FlightAware ADS-B
02:28PM 44.4655 -79.8981 213° Southwest 381 438 36,000  Level FlightAware ADS-B
02:30PM 44.3101 -80.0381 213° Southwest 389 448 36,000  Level FlightAware ADS-B
02:31PM 44.2182 -80.1203 213° Southwest 388 447 36,000  Level FlightAware ADS-B
02:31PM 44.1654 -80.1672 213° Southwest 387 445 36,000  Level FlightAware ADS-B
02:32PM 44.0926 -80.2319 213° Southwest 386 444 36,000  Level FlightAware ADS-B
02:33PM 44.0312 -80.2865 213° Southwest 387 445 36,000  Level FlightAware ADS-B
02:33PM 43.9677 -80.3428 213° Southwest 390 449 36,000  Level FlightAware ADS-B (MDST / STI)
02:34PM 43.9459 -80.3620 212° Southwest 390 449 36,000  Level FlightAware ADS-B
02:34PM 43.8888 -80.4123 212° Southwest 391 450 36,000  Level FlightAware ADS-B
02:35PM 43.8065 -80.4846 212° Southwest 390 449 36,000  Level FlightAware ADS-B (MDST / STI)
02:36PM 43.7679 -80.5184 212° Southwest 388 447 36,000  Level FlightAware ADS-B
02:36PM 43.6886 -80.5879 212° Southwest 391 450 36,000  Level FlightAware ADS-B (MDST / STI)
02:37PM 43.6253 -80.6432 212° Southwest 393 452 36,000  Level FlightAware ADS-B (MDST / STI)
02:37PM 43.5852 -80.6780 212° Southwest 395 455 36,000  Level FlightAware ADS-B (MDST / STI)
02:38PM 43.5027 -80.7497 212° Southwest 397 457 36,000  Level FlightAware ADS-B (MDST / STI)
02:39PM 43.4484 -80.7968 212° Southwest 398 458 36,000  Level FlightAware ADS-B (MDST / STI)
02:39PM 43.4457 -80.7991 212° Southwest 399 459 36,000  Level FlightAware ADS-B
02:40PM 43.3672 -80.8667 212° Southwest 398 458 36,000  Level FlightAware ADS-B
02:41PM 43.3007 -80.9240 212° Southwest 395 455 36,000  Level FlightAware ADS-B
02:41PM 43.2388 -80.9771 212° Southwest 394 453 36,000  Level FlightAware ADS-B
02:42PM 43.1861 -81.0223 212° Southwest 394 453 36,000  Level FlightAware ADS-B
02:43PM 43.1264 -81.0734 212° Southwest 395 455 36,000  Level FlightAware ADS-B
02:43PM 43.0672 -81.1240 212° Southwest 398 458 36,000  Level FlightAware ADS-B
02:44PM 42.9875 -81.1790 207° Southwest 413 475 36,000  Level FlightAware ADS-B
02:45PM 42.9235 -81.2192 205° Southwest 409 471 36,000  Level FlightAware ADS-B
02:45PM 42.8692 -81.2533 205° Southwest 406 467 36,000  Level FlightAware ADS-B
02:46PM 42.7725 -81.3128 204° Southwest 404 465 36,000  Level FlightAware ADS-B
02:47PM 42.6779 -81.3709 204° Southwest 404 465 36,000  Level FlightAware ADS-B
02:48PM 42.5771 -81.4325 204° Southwest 405 466 36,000  Level FlightAware ADS-B
02:49PM 42.5257 -81.4639 204° Southwest 407 468 36,000  Level FlightAware ADS-B
02:49PM 42.4361 -81.5184 204° Southwest 410 472 36,000  Level FlightAware ADS-B
02:50PM 42.3723 -81.5571 204° Southwest 411 473 36,000  Level FlightAware ADS-B
02:51PM 42.3001 -81.6008 204° Southwest 411 473 36,000  Level FlightAware ADS-B
02:51PM 42.2000 -81.6333 204° Southwest 410 472 36,000  Level Toronto Center
02:52PM 42.1417 -81.6961 219° Southwest 409 471 36,000  Level Cleveland Center
02:53PM 42.0389 -81.7586 204° Southwest 408 470 36,000  Level Cleveland Center
02:54PM 41.9139 -81.8333 204° Southwest 409 471 36,000  Level Cleveland Center
02:55PM 41.8097 -81.8947 204° Southwest 409 471 36,000  Level Cleveland Center
02:56PM 41.7056 -81.9581 204° Southwest 410 472 36,000  Level Cleveland Center
02:57PM 41.6000 -82.0211 204° Southwest 412 474 36,000  Level Cleveland Center
02:58PM 41.4950 -82.0811 203° Southwest 411 473 36,000  Level Cleveland Center
02:59PM 41.3906 -82.1431 204° Southwest 411 473 36,000  Level Cleveland Center
03:00PM 41.2547 -82.1989 197° South 425 489 36,000  Level Cleveland Center
03:01PM 41.1406 -82.2397 195° South 426 490 36,000  Level Cleveland Center
03:02PM 41.0211 -82.2828 195° South 426 490 36,000  Level Cleveland Center
03:03PM 40.9067 -82.3231 195° South 426 490 36,000  Level Cleveland Center
03:04PM 40.7922 -82.3644 195° South 426 490 36,000  Level Cleveland Center
03:05PM 40.6775 -82.4050 195° South 426 490 36,000  Level Cleveland Center
03:06PM 40.5636 -82.4442 195° South 424 488 36,000  Level Cleveland Center
03:12PM 39.8386 -82.6098 195° South 442 509 36,000  Level FlightAware ADS-B
03:13PM 39.7523 -82.6156 183° South 444 511 36,000  Level FlightAware ADS-B
03:14PM 39.6738 -82.6208 183° South 445 512 36,000  Level FlightAware ADS-B
03:14PM 39.6068 -82.6253 183° South 446 513 36,000  Level FlightAware ADS-B
03:15PM 39.5247 -82.6309 183° South 446 513 36,000  Level FlightAware ADS-B
03:16PM 39.4523 -82.6356 183° South 446 513 36,000  Level FlightAware ADS-B
03:16PM 39.3769 -82.6407 183° South 447 514 36,000  Level FlightAware ADS-B
03:17PM 39.2875 -82.6468 183° South 449 517 36,000  Level FlightAware ADS-B
03:18PM 39.2024 -82.6525 183° South 451 519 36,000  Level FlightAware ADS-B
03:18PM 39.1456 -82.6563 183° South 451 519 36,000  Level FlightAware ADS-B
03:19PM 39.0403 -82.6632 183° South 452 520 36,000  Level FlightAware ADS-B
03:20PM 38.9611 -82.6684 183° South 457 526 36,000  Level FlightAware ADS-B
03:20PM 38.8869 -82.6733 183° South 460 529 36,000  Level FlightAware ADS-B
03:21PM 38.7937 -82.6795 183° South 462 532 36,000  Level FlightAware ADS-B
03:21PM 38.9157 -82.6714 North 462 532 36,000  Level FlightAware ADS-B
03:22PM 38.6103 -82.6919 North 460 529 36,000  Level Indianapolis Center
03:23PM 38.4822 -82.7006 183° South 460 529 36,000  Level Indianapolis Center
03:24PM 38.3333 -82.7106 183° South 459 528 36,000  Level Indianapolis Center
03:25PM 38.2058 -82.7175 182° South 457 526 36,000  Level Indianapolis Center
03:26PM 38.0794 -82.7272 183° South 454 522 36,000  Level Indianapolis Center
03:28PM 37.9522 -82.7350 183° South 455 524 36,000  Level Indianapolis Center
03:29PM 37.8267 -82.7431 183° South 453 521 36,000  Level Indianapolis Center
03:30PM 37.7017 -82.7611 187° South 452 520 36,000  Level Indianapolis Center
03:31PM 37.5697 -82.8211 200° South 433 498 36,000  Level Indianapolis Center
03:32PM 37.4667 -82.8914 208° Southwest 423 487 36,000  Level Indianapolis Center
03:33PM 37.3619 -82.9606 208° Southwest 425 489 36,000  Level Indianapolis Center
03:34PM 37.2569 -83.0283 207° Southwest 425 489 36,000  Level Indianapolis Center
03:35PM 37.1350 -83.1081 208° Southwest 426 490 36,000  Level Indianapolis Center
03:36PM 37.0308 -83.1758 207° Southwest 426 490 36,000  Level Indianapolis Center
03:37PM 36.9272 -83.2439 208° Southwest 425 489 36,000  Level Indianapolis Center
03:38PM 36.8217 -83.3108 207° Southwest 427 491 36,000  Level Indianapolis Center
03:39PM 36.7158 -83.3789 207° Southwest 428 493 36,000  Level Indianapolis Center
03:40PM 36.5919 -83.4581 207° Southwest 429 494 36,000  Level Indianapolis Center
03:41PM 36.4906 -83.5233 207° Southwest 426 490 36,000  Level Indianapolis Center
03:42PM 36.3861 -83.5914 208° Southwest 422 486 36,000  Level Indianapolis Center
03:43PM 36.2794 -83.6575 207° Southwest 426 490 36,000  Level Indianapolis Center
03:44PM 36.1764 -83.7244 208° Southwest 419 482 36,000  Level Indianapolis Center
03:45PM 36.0747 -83.7894 207° Southwest 425 489 36,000  Level Atlanta Center
03:46PM 35.9725 -83.8539 207° Southwest 420 483 36,000  Level Atlanta Center
03:47PM 35.8539 -83.9081 200° South 420 483 36,000  Level Atlanta Center
03:48PM 35.7350 -83.9364 191° South 426 490 36,000  Level Atlanta Center
03:49PM 35.6181 -83.9647 191° South 431 496 36,000  Level Atlanta Center
03:50PM 35.4992 -83.9928 191° South 431 496 36,000  Level Atlanta Center
03:51PM 35.3803 -84.0233 192° South 431 496 36,000  Level Atlanta Center
03:52PM 35.2633 -84.0514 191° South 431 496 36,000  Level Atlanta Center
03:53PM 35.1425 -84.0794 191° South 431 496 36,000  Level Atlanta Center
03:54PM 35.0256 -84.1097 192° South 430 495 36,000  Level Atlanta Center
03:55PM 34.9067 -84.1375 191° South 430 495 36,000  Level Atlanta Center
03:56PM 34.7875 -84.1653 191° South 430 495 36,000  Level Atlanta Center
03:57PM 34.6667 -84.1928 191° South 430 495 36,000  Level Atlanta Center
03:58PM 34.5622 -84.2153 190° South 430 495 36,000  Level Atlanta Center
03:59PM 34.4389 -84.2478 192° South 437 503 36,000  Level Atlanta Center
04:00PM 34.3094 -84.2778 191° South 437 503 36,000  Level Atlanta Center
04:01PM 34.1906 -84.3050 191° South 442 509 36,000  Level Atlanta Center
04:02PM 34.0672 -84.3347 191° South 448 516 36,000  Level Atlanta Center
04:03PM 33.9483 -84.3644 192° South 448 516 36,000 60 Level Atlanta Center
04:04PM 33.8231 -84.3939 191° South 448 516 36,200 300 Climbing Atlanta Center
04:05PM 33.7081 -84.4183 190° South 448 516 36,700 360 Climbing Atlanta Center
04:06PM 33.5911 -84.4353 187° South 453 521 37,000 120 Climbing Atlanta Center
04:07PM 33.4597 -84.4347 180° South 460 529 37,000  Level Atlanta Center
04:08PM 33.3303 -84.4317 179° South 466 536 37,000  Level Atlanta Center
04:09PM 33.1861 -84.4311 180° South 471 542 37,000  Level Atlanta Center
04:10PM 33.0547 -84.4278 179° South 476 548 37,000  Level Atlanta Center
04:11PM 32.9233 -84.4275 180° South 476 548 37,000  Level Atlanta Center
04:12PM 32.7917 -84.4244 179° South 476 548 37,000  Level Atlanta Center
04:13PM 32.6728 -84.4164 177° South 476 548 37,000  Level Atlanta Center
04:14PM 32.5392 -84.4158 180° South 476 548 37,000  Level Atlanta Center
04:15PM 32.4078 -84.4128 179° South 476 548 37,000  Level Atlanta Center
04:16PM 32.2742 -84.4097 179° South 476 548 37,000  Level Atlanta Center
04:17PM 32.1406 -84.4067 179° South 476 548 37,000  Level Atlanta Center
04:18PM 32.0614 -84.4050 179° South 475 547 37,000  Level Jacksonville Center
04:19PM 31.9322 -84.4006 178° South 475 547 37,000  Level Jacksonville Center
04:20PM 31.7964 -84.3983 179° South 475 547 37,000  Level Jacksonville Center
04:21PM 31.6628 -84.3961 179° South 475 547 37,000  Level Jacksonville Center
04:22PM 31.5125 -84.3936 179° South 475 547 37,000  Level Jacksonville Center
04:23PM 31.3789 -84.3917 179° South 480 552 37,000  Level Jacksonville Center
04:24PM 31.2453 -84.3894 179° South 480 552 37,000  Level Jacksonville Center
04:25PM 31.1117 -84.3847 178° South 475 547 37,000  Level Jacksonville Center
04:26PM 30.9761 -84.3828 179° South 475 547 37,000  Level Jacksonville Center
04:27PM 30.8425 -84.3806 179° South 475 547 37,000  Level Jacksonville Center
04:28PM 30.7067 -84.3786 179° South 480 552 37,000  Level Jacksonville Center
04:29PM 30.5714 -84.3497 170° South 480 552 37,000  Level Jacksonville Center
04:30PM 30.4364 -84.2947 161° South 492 566 37,000  Level Jacksonville Center
04:31PM 30.3119 -84.2136 151° Southeast 497 572 37,000  Level Jacksonville Center
04:32PM 30.1872 -84.1375 152° Southeast 502 578 37,000  Level Jacksonville Center
04:33PM 30.0650 -84.0542 149° Southeast 507 583 37,000  Level Jacksonville Center
04:34PM 29.9425 -83.9761 151° Southeast 512 589 37,000  Level Jacksonville Center
04:35PM 29.8178 -83.8933 150° Southeast 512 589 37,000  Level Jacksonville Center
04:36PM 29.7036 -83.8228 152° Southeast 519 597 37,000  Level Jacksonville Center
04:37PM 29.5769 -83.7403 150° Southeast 519 597 37,000  Level Jacksonville Center
04:38PM 29.4500 -83.6581 151° Southeast 519 597 37,000  Level Jacksonville Center
04:39PM 29.3253 -83.5786 151° Southeast 519 597 37,000  Level Jacksonville Center
04:44PM 28.6346 -83.1381 151° Southeast 515 593 37,000  Level FlightAware ADS-B (KMCO)
04:45PM 28.4683 -83.0337 151° Southeast 515 593 37,000  Level FlightAware ADS-B (KMCO)
04:47PM 28.2905 -82.9225 151° Southeast 515 593 37,000  Level FlightAware ADS-B (KMCO)
04:47PM 28.2048 -82.8690 151° Southeast 515 593 37,000  Level FlightAware ADS-B (KMCO)
04:49PM 27.9897 -82.7352 151° Southeast 515 593 37,000  Level FlightAware ADS-B (KMCO)
04:50PM 27.8777 -82.6656 151° Southeast 514 592 37,000  Level FlightAware ADS-B (KMCO)
04:51PM 27.7803 -82.5997 149° Southeast 516 594 37,000  Level FlightAware ADS-B (KMCO)
04:51PM 27.7138 -82.5549 149° Southeast 516 594 37,000  Level FlightAware ADS-B (KMCO)
04:52PM 27.5798 -82.4773 153° Southeast 501 577 37,000  Level FlightAware ADS-B (KMCO)
04:53PM 27.5315 -82.4706 173° South 481 554 37,000  Level FlightAware ADS-B (KMCO)
04:56PM 27.1547 -82.4762 181° South 482 555 37,000  Level FlightAware ADS-B (KMCO)
04:57PM 26.9021 -82.4798 181° South 481 554 37,000  Level FlightAware ADS-B (KMCO)
04:58PM 26.8224 -82.4810 181° South 479 551 37,000  Level FlightAware ADS-B (KMCO)
04:59PM 26.6994 -82.4828 181° South 479 551 37,000  Level FlightAware ADS-B (KMCO)
05:00PM 26.5962 -82.4843 181° South 479 551 37,000  Level FlightAware ADS-B (KMCO)
05:00PM 26.5089 -82.4856 181° South 480 552 37,000  Level FlightAware ADS-B (KMCO)
05:01PM 26.4324 -82.4866 181° South 481 554 37,000  Level FlightAware ADS-B (KMCO)
05:02PM 26.2771 -82.4887 181° South 483 556 37,000  Level FlightAware ADS-B (KMCO)
05:03PM 26.1931 -82.4898 181° South 482 555 37,000  Level FlightAware ADS-B (KMCO)
05:03PM 26.0969 -82.4911 181° South 481 554 37,000  Level FlightAware ADS-B (KMCO)
05:04PM 26.0072 -82.4922 181° South 480 552 37,000  Level FlightAware ADS-B (KMCO)
05:05PM 25.9186 -82.4934 181° South 479 551 37,000  Level FlightAware ADS-B (KMCO)
05:06PM 25.8148 -82.4948 181° South 480 552 37,000  Level FlightAware ADS-B (KMCO)
05:06PM 25.7175 -82.4961 181° South 480 552 37,000 -180 Level FlightAware ADS-B (KMCO)
05:08PM 25.4962 -82.4991 181° South 485 558 36,600 -480 Descending FlightAware ADS-B (KMCO)
05:09PM 25.4003 -82.5004 181° South 485 558 36,000 -960 Descending FlightAware ADS-B (KMCO)
05:09PM 25.3347 -82.5017 181° South 488 562 35,400 -960 Descending Miami Center
05:10PM 25.1989 -82.5047 181° South 488 562 34,500 -960 Descending Miami Center
05:11PM 25.0653 -82.5053 180° South 488 562 33,500 -1,020 Descending Miami Center
05:12PM 24.9339 -82.5083 181° South 483 556 32,500 -1,020 Descending Miami Center
05:13PM 24.8022 -82.5092 180° South 476 548 31,500 -1,020 Descending Miami Center
05:14PM 24.6728 -82.5125 181° South 471 542 30,500 -1,020 Descending Miami Center
05:15PM 24.5453 -82.5136 180° South 465 535 29,500 -1,260 Descending Miami Center
05:16PM 24.4200 -82.5125 180° South 459 528 28,000 -1,620 Descending Miami Center
05:17PM 24.2989 -82.5161 182° South 452 520 26,300 -1,740 Descending Miami Center
05:18PM 24.1819 -82.5175 181° South 439 505 24,600 -1,740 Descending Miami Center
05:19PM 24.0628 -82.5214 182° South 434 499 22,900 -1,740 Descending Miami Center
05:20PM 23.9478 -82.5231 181° South 429 494 21,200 -1,740 Descending Miami Center
05:22PM 23.8171 -82.4463 152° Southeast  Level FlightAware Approximate
05:29PM 22.9891 -82.4091 180° South  Level Estimated
05:30PM 22.9891 -82.4091 180° South  Level Estimated
05:31PM 22.9891 -82.4091 180° South  Level Estimated
05:32PM 22.9891 -82.4091 180° South  Level Estimated
05:33PM 22.9891 -82.4091 180° South  Level Estimated
05:34PM 22.9891 -82.4091 180° South  Level Estimated
05:35PM 22.9891 -82.4091 180° South  Level Estimated
05:36PM 22.9891 -82.4091 180° South  Level Estimated
05:37PM 22.9891 -82.4091 180° South  Level Estimated
05:38PM 22.9891 -82.4091 180° South  Level Estimated
05:39PM 22.9891 -82.4091 180° South  Level Estimated
05:40PM 22.9891 -82.4091 180° South  Level Estimated
05:41PM 22.9891 -82.4091 180° South  Level Estimated
05:42PM 22.9891 -82.4091 180° South  Level Estimated
05:43PM 22.9891 -82.4091 180° South  Level Estimated
05:44PM 22.9891 -82.4091 180° South  Level Estimated
05:45PM 22.9891 -82.4091 180° South  Level Estimated
05:46PM 22.9891 -82.4091 180° South  Level Estimated
05:47PM 22.9891 -82.4091 180° South  Level Estimated
05:48PM 22.9891 -82.4091 180° South  Level Estimated
05:49PM 22.9891 -82.4091 180° South  Level Estimated
05:50PM 22.9891 -82.4091 180° South  Level Estimated
05:51PM 22.9891 -82.4091 180° South  Level Estimated